首页
METAR-TAF:

METAR-TAF

机场 :

奥格登, 犹他州, 美国

纬度: 41-07N, 经度: 111-58W, 海拔: 1459米

当前天气观测

该预报发布于1小时和3分钟前的13:58 UTC
风速13节,风向东转东北
温度 6°C
湿度 56%
气压 1020 hPa
能見度: 16.1公里
天空无云

METAR: KHIF 081358Z AUTO 06013KT 10SM CLR 06/M02 A3013 RMK AO2 SLP180 T00581018

时间: 09:01 (15:01 UTC)

预报

该预报发布于2小时和1分钟前的13:00 UTC
预报有效从08日的 13点(UTC)到 09日的 19点(UTC)
风速12节,风向东转东北
能见度10公里或以上
天空无云
成为
从 08日的 18点(UTC)到 08日的 19点(UTC)
风速9节,风向北转西北
能见度10公里或以上
散云层高于20000英尺
成为
从 09日的 02点(UTC)到 09日的 03点(UTC)
风速15节,风向,有时为25节阵风
能见度10公里或以上
少量云层高于20000英尺

TAF: KHIF 081300Z 0813/0919 06012KT 9999 SKC QNH3010INS BECMG 0818/0819 33009KT 9999 SCT200 QNH3013INS BECMG 0902/0903 09015G25KT 9999 FEW200 510009 QNH2998INS TX17/0822Z TN05/0814Z

超过4000个机场的气象观测和天气预报(METAR&TAF报告)。

可查询的气象台以黄色和红色小点在地图上表示。

将鼠标移到小点上方,可查看气象台名称。

然后点击查看天气观测和预报。

如需切换地图:点击带黑十字的绿色按钮放大地图;点击带横线的绿色按钮缩小地图;或者点击绿色箭头查看邻近地区的地图。


METAR-TAF: